Lucky Lake, Canada
Current Conditions -  °F | °C
As of 3:00 PM on Sunday 21 Dec 2014 (Local Time) from CYYN Reporting Station
Overcast Overcast  
Wind Chill: 29°   Ceiling: 7500
Heat Index: 36°   Visibility: 9mi
Dew Point: 30°   Wind: 8mph
Humidity: 81%   Direction: 220°SW
Pressure: 29.23"   Gusts: NA
Location:  50.98°N, 107.13°W
Report Text: CYYN 212100Z AUTO 22007KT 9SM BKN075 OVC099 02/M01 A2923 RMK SLP926
Loading
Personal Weather Stations






























Interactive Weather Map New forecast layout! Learn more

10-Day Weather Forecast

Advertisements
Track Severe Weather on mobile